Time;durP1;ratioP1;P1;durP2;ratioP2;P2;SDS_P1;SDS_P2;PMS_P1;PMS_P2;Temp;Humidity;BMP_temperature;BMP_pressure;BME280_temperature;BME280_humidity;BME280_pressure;Samples;Min_cycle;Max_cycle;Signal;HPM_P1;HPM_P2
2023/05/15 18:54:03;;;;;;;18.27;11.10;;;;;;;;;;7297468;19;20448;-77
2023/05/15 22:02:38;;;;;;;9.18;6.72;;;;;;;;;;7292920;19;20664;-78
2023/05/15 22:05:03;;;;;;;10.02;6.90;;;;;;;;;;7336390;19;20030;-77
2023/05/15 22:07:29;;;;;;;11.45;6.68;;;;;;;;;;7361531;19;20113;-77
2023/05/15 22:09:54;;;;;;;10.83;7.33;;;;;;;;;;7359362;19;19995;-77
2023/05/15 22:12:19;;;;;;;11.25;7.32;;;;;;;;;;7364073;19;19995;-79
2023/05/15 22:14:45;;;;;;;10.27;7.50;;;;;;;;;;7354744;19;20005;-79
2023/05/15 22:17:11;;;;;;;10.70;7.40;;;;;;;;;;7357543;19;20015;-80
2023/05/15 22:19:36;;;;;;;11.57;7.60;;;;;;;;;;7354037;19;20023;-80
2023/05/15 22:22:03;;;;;;;13.52;8.07;;;;;;;;;;7362078;19;20078;-77
2023/05/15 22:24:28;;;;;;;9.52;6.88;;;;;;;;;;7362938;19;20009;-80
2023/05/15 22:26:53;;;;;;;8.80;6.45;;;;;;;;;;7367733;19;20015;-78
2023/05/15 22:29:18;;;;;;;9.70;6.43;;;;;;;;;;7361176;19;20411;-80
2023/05/15 22:31:43;;;;;;;9.30;5.90;;;;;;;;;;7366303;19;20097;-80
2023/05/15 22:34:09;;;;;;;11.57;6.07;;;;;;;;;;7353068;19;20243;-78
2023/05/15 22:36:35;;;;;;;8.45;5.20;;;;;;;;;;7360907;19;20014;-79
2023/05/15 22:39:00;;;;;;;12.13;5.85;;;;;;;;;;7364077;19;20010;-79
2023/05/15 22:41:26;;;;;;;9.77;5.40;;;;;;;;;;7368880;19;20005;-77
2023/05/15 22:43:51;;;;;;;8.63;5.70;;;;;;;;;;7360843;19;19995;-80
2023/05/15 22:46:16;;;;;;;11.10;5.20;;;;;;;;;;7367116;19;20227;-79
2023/05/15 22:48:42;;;;;;;8.33;4.67;;;;;;;;;;7370216;19;20002;-79
2023/05/15 22:51:07;;;;;;;8.70;4.67;;;;;;;;;;7366218;19;20250;-77
2023/05/15 22:53:32;;;;;;;7.57;3.90;;;;;;;;;;7366348;19;20236;-80
2023/05/15 22:55:57;;;;;;;7.22;4.22;;;;;;;;;;7371158;19;20020;-80
2023/05/15 22:58:23;;;;;;;6.43;4.10;;;;;;;;;;7369801;19;20129;-79
2023/05/15 23:00:48;;;;;;;9.63;3.87;;;;;;;;;;7370144;19;20252;-80
2023/05/15 23:03:13;;;;;;;6.28;3.95;;;;;;;;;;7366540;19;20758;-79
2023/05/15 23:05:39;;;;;;;7.65;3.83;;;;;;;;;;7365749;19;20100;-80
2023/05/15 23:08:04;;;;;;;7.97;3.83;;;;;;;;;;7366798;19;20356;-79
2023/05/15 23:10:29;;;;;;;7.90;3.67;;;;;;;;;;7370885;19;20400;-79
2023/05/15 23:12:54;;;;;;;6.53;3.40;;;;;;;;;;7373402;19;20672;-79
2023/05/15 23:15:20;;;;;;;8.87;3.90;;;;;;;;;;7370400;19;20026;-80
2023/05/15 23:17:45;;;;;;;6.60;3.75;;;;;;;;;;7373061;19;20285;-80
2023/05/15 23:20:11;;;;;;;6.93;3.13;;;;;;;;;;7367544;19;19998;-77
2023/05/15 23:22:38;;;;;;;5.35;2.97;;;;;;;;;;7373118;19;20240;-79
2023/05/15 23:25:03;;;;;;;8.35;3.25;;;;;;;;;;7371516;19;20019;-80
2023/05/15 23:27:28;;;;;;;6.18;2.90;;;;;;;;;;7369518;19;20424;-79
2023/05/15 23:29:53;;;;;;;6.18;2.47;;;;;;;;;;7368555;19;20003;-80
2023/05/15 23:32:18;;;;;;;5.00;2.47;;;;;;;;;;7369171;19;20050;-79
2023/05/15 23:34:44;;;;;;;7.23;2.70;;;;;;;;;;7371945;19;20259;-77
2023/05/15 23:37:09;;;;;;;6.78;2.80;;;;;;;;;;7367689;19;20299;-80
2023/05/15 23:39:35;;;;;;;6.30;3.13;;;;;;;;;;7373736;19;20030;-80
2023/05/15 23:42:00;;;;;;;4.65;2.63;;;;;;;;;;7371650;19;20028;-80
2023/05/15 23:44:25;;;;;;;5.93;2.92;;;;;;;;;;7369027;19;20715;-80
2023/05/15 23:46:50;;;;;;;6.70;3.40;;;;;;;;;;7368700;19;20433;-80
2023/05/15 23:49:15;;;;;;;6.47;3.45;;;;;;;;;;7373039;19;19991;-80
2023/05/15 23:51:42;;;;;;;6.00;3.30;;;;;;;;;;7373356;19;20091;-80
2023/05/15 23:54:07;;;;;;;8.10;3.50;;;;;;;;;;7371495;19;20291;-81
2023/05/15 23:56:32;;;;;;;6.57;3.40;;;;;;;;;;7369237;19;20046;-78
2023/05/15 23:58:58;;;;;;;6.93;3.87;;;;;;;;;;7369404;19;20106;-81
